sensor_id;sensor_type;location;lat;lon;timestamp;P1;durP1;ratioP1;P2;durP2;ratioP2
76094;SDS011;64821;13.710;100.604;2023-06-05T00:00:25;10.43;;;3.45;;
76094;SDS011;64821;13.710;100.604;2023-06-05T00:01:29;8.85;;;3.10;;
76094;SDS011;64821;13.710;100.604;2023-06-05T00:02:33;7.35;;;3.05;;
76094;SDS011;64821;13.710;100.604;2023-06-05T00:03:38;10.88;;;3.70;;
76094;SDS011;64821;13.710;100.604;2023-06-05T00:04:42;9.27;;;3.77;;
76094;SDS011;64821;13.710;100.604;2023-06-05T00:05:46;10.25;;;3.60;;
76094;SDS011;64821;13.710;100.604;2023-06-05T00:06:50;9.95;;;3.42;;
76094;SDS011;64821;13.710;100.604;2023-06-05T00:07:53;9.27;;;3.72;;
76094;SDS011;64821;13.710;100.604;2023-06-05T00:08:57;8.98;;;3.28;;
76094;SDS011;64821;13.710;100.604;2023-06-05T00:10:01;8.07;;;3.03;;
76094;SDS011;64821;13.710;100.604;2023-06-05T00:11:05;8.90;;;3.13;;
76094;SDS011;64821;13.710;100.604;2023-06-05T00:12:09;9.38;;;3.00;;
76094;SDS011;64821;13.710;100.604;2023-06-05T00:13:13;8.95;;;3.40;;
76094;SDS011;64821;13.710;100.604;2023-06-05T00:14:17;9.73;;;3.50;;
76094;SDS011;64821;13.710;100.604;2023-06-05T00:15:20;8.20;;;3.30;;
76094;SDS011;64821;13.710;100.604;2023-06-05T00:16:24;8.27;;;2.97;;
76094;SDS011;64821;13.710;100.604;2023-06-05T00:17:28;8.43;;;3.35;;
76094;SDS011;64821;13.710;100.604;2023-06-05T00:18:32;7.45;;;2.90;;
76094;SDS011;64821;13.710;100.604;2023-06-05T00:19:37;8.82;;;3.30;;
76094;SDS011;64821;13.710;100.604;2023-06-05T00:20:41;8.43;;;2.93;;
76094;SDS011;64821;13.710;100.604;2023-06-05T00:21:45;9.93;;;3.30;;
76094;SDS011;64821;13.710;100.604;2023-06-05T00:22:48;9.18;;;3.38;;
76094;SDS011;64821;13.710;100.604;2023-06-05T00:23:52;10.40;;;3.20;;
76094;SDS011;64821;13.710;100.604;2023-06-05T00:24:56;10.77;;;3.00;;
76094;SDS011;64821;13.710;100.604;2023-06-05T00:26:00;10.40;;;3.37;;
76094;SDS011;64821;13.710;100.604;2023-06-05T00:27:04;7.68;;;2.80;;
76094;SDS011;64821;13.710;100.604;2023-06-05T00:28:08;7.25;;;2.83;;
76094;SDS011;64821;13.710;100.604;2023-06-05T00:29:12;7.93;;;3.17;;
76094;SDS011;64821;13.710;100.604;2023-06-05T00:30:15;7.50;;;2.70;;
76094;SDS011;64821;13.710;100.604;2023-06-05T00:31:19;7.90;;;3.10;;
76094;SDS011;64821;13.710;100.604;2023-06-05T00:32:23;8.38;;;3.25;;
76094;SDS011;64821;13.710;100.604;2023-06-05T00:33:30;10.23;;;3.20;;
76094;SDS011;64821;13.710;100.604;2023-06-05T00:34:34;9.15;;;3.10;;
76094;SDS011;64821;13.710;100.604;2023-06-05T00:35:40;8.27;;;3.20;;
76094;SDS011;64821;13.710;100.604;2023-06-05T00:36:43;9.40;;;3.30;;
76094;SDS011;64821;13.710;100.604;2023-06-05T00:37:47;7.68;;;3.10;;
76094;SDS011;64821;13.710;100.604;2023-06-05T00:38:51;8.93;;;3.42;;
76094;SDS011;64821;13.710;100.604;2023-06-05T00:39:54;8.93;;;3.20;;
76094;SDS011;64821;13.710;100.604;2023-06-05T00:40:58;8.77;;;3.50;;
76094;SDS011;64821;13.710;100.604;2023-06-05T00:42:02;9.53;;;3.20;;
76094;SDS011;64821;13.710;100.604;2023-06-05T00:43:06;8.32;;;3.47;;
76094;SDS011;64821;13.710;100.604;2023-06-05T00:44:09;9.35;;;3.45;;
76094;SDS011;64821;13.710;100.604;2023-06-05T00:45:13;10.07;;;3.20;;
76094;SDS011;64821;13.710;100.604;2023-06-05T00:46:17;7.25;;;3.00;;
76094;SDS011;64821;13.710;100.604;2023-06-05T00:47:22;9.20;;;3.00;;
76094;SDS011;64821;13.710;100.604;2023-06-05T00:48:25;10.38;;;3.20;;
76094;SDS011;64821;13.710;100.604;2023-06-05T00:49:29;10.82;;;3.58;;
76094;SDS011;64821;13.710;100.604;2023-06-05T00:50:34;9.63;;;3.60;;
76094;SDS011;64821;13.710;100.604;2023-06-05T00:51:39;10.55;;;3.53;;
76094;SDS011;64821;13.710;100.604;2023-06-05T00:52:46;10.93;;;3.33;;
76094;SDS011;64821;13.710;100.604;2023-06-05T00:53:51;9.30;;;3.53;;
76094;SDS011;64821;13.710;100.604;2023-06-05T00:54:55;8.05;;;3.30;;
76094;SDS011;64821;13.710;100.604;2023-06-05T00:55:59;9.52;;;3.65;;
76094;SDS011;64821;13.710;100.604;2023-06-05T00:57:03;11.20;;;3.70;;
76094;SDS011;64821;13.710;100.604;2023-06-05T00:58:07;8.87;;;3.40;;
76094;SDS011;64821;13.710;100.604;2023-06-05T00:59:12;7.95;;;3.20;;
76094;SDS011;64821;13.710;100.604;2023-06-05T01:00:16;7.93;;;3.15;;
76094;SDS011;64821;13.710;100.604;2023-06-05T01:01:20;9.35;;;3.20;;
76094;SDS011;64821;13.710;100.604;2023-06-05T01:02:25;8.30;;;3.42;;
76094;SDS011;64821;13.710;100.604;2023-06-05T01:03:28;8.63;;;3.57;;
76094;SDS011;64821;13.710;100.604;2023-06-05T01:04:33;8.10;;;3.08;;
76094;SDS011;64821;13.710;100.604;2023-06-05T01:05:37;9.68;;;3.65;;
76094;SDS011;64821;13.710;100.604;2023-06-05T01:06:42;9.13;;;3.28;;
76094;SDS011;64821;13.710;100.604;2023-06-05T01:07:46;10.18;;;3.63;;
76094;SDS011;64821;13.710;100.604;2023-06-05T01:08:50;11.80;;;3.60;;
76094;SDS011;64821;13.710;100.604;2023-06-05T01:09:53;8.65;;;3.50;;
76094;SDS011;64821;13.710;100.604;2023-06-05T01:10:58;9.68;;;3.30;;
76094;SDS011;64821;13.710;100.604;2023-06-05T01:12:05;9.20;;;3.30;;
76094;SDS011;64821;13.710;100.604;2023-06-05T01:13:18;8.30;;;3.80;;
76094;SDS011;64821;13.710;100.604;2023-06-05T01:14:27;9.73;;;3.60;;
76094;SDS011;64821;13.710;100.604;2023-06-05T01:15:32;9.23;;;3.40;;
76094;SDS011;64821;13.710;100.604;2023-06-05T01:16:38;10.23;;;3.60;;
76094;SDS011;64821;13.710;100.604;2023-06-05T01:17:43;9.75;;;2.97;;
76094;SDS011;64821;13.710;100.604;2023-06-05T01:18:48;9.20;;;3.38;;
76094;SDS011;64821;13.710;100.604;2023-06-05T01:19:51;11.03;;;3.50;;
76094;SDS011;64821;13.710;100.604;2023-06-05T01:20:59;8.57;;;3.22;;
76094;SDS011;64821;13.710;100.604;2023-06-05T01:22:05;10.85;;;3.67;;
76094;SDS011;64821;13.710;100.604;2023-06-05T01:23:10;7.97;;;3.30;;
76094;SDS011;64821;13.710;100.604;2023-06-05T01:24:14;10.80;;;3.50;;
76094;SDS011;64821;13.710;100.604;2023-06-05T01:25:18;10.47;;;3.23;;
76094;SDS011;64821;13.710;100.604;2023-06-05T01:26:22;9.35;;;3.63;;
76094;SDS011;64821;13.710;100.604;2023-06-05T01:27:38;10.13;;;3.50;;
76094;SDS011;64821;13.710;100.604;2023-06-05T01:28:47;8.77;;;3.78;;
76094;SDS011;64821;13.710;100.604;2023-06-05T01:29:53;8.38;;;3.63;;
76094;SDS011;64821;13.710;100.604;2023-06-05T01:31:01;8.30;;;3.50;;
76094;SDS011;64821;13.710;100.604;2023-06-05T01:32:11;8.75;;;3.40;;
76094;SDS011;64821;13.710;100.604;2023-06-05T01:33:19;10.38;;;3.67;;
76094;SDS011;64821;13.710;100.604;2023-06-05T01:34:28;10.20;;;3.50;;
76094;SDS011;64821;13.710;100.604;2023-06-05T01:35:32;9.18;;;3.95;;
76094;SDS011;64821;13.710;100.604;2023-06-05T01:36:37;8.50;;;3.80;;
76094;SDS011;64821;13.710;100.604;2023-06-05T01:37:43;9.05;;;3.53;;
76094;SDS011;64821;13.710;100.604;2023-06-05T01:38:52;8.90;;;3.70;;
76094;SDS011;64821;13.710;100.604;2023-06-05T01:39:58;9.88;;;3.58;;
76094;SDS011;64821;13.710;100.604;2023-06-05T01:41:03;9.18;;;3.88;;
76094;SDS011;64821;13.710;100.604;2023-06-05T01:42:09;7.67;;;3.40;;
76094;SDS011;64821;13.710;100.604;2023-06-05T01:43:14;10.35;;;3.50;;
76094;SDS011;64821;13.710;100.604;2023-06-05T01:44:19;11.30;;;3.78;;
76094;SDS011;64821;13.710;100.604;2023-06-05T01:45:24;11.50;;;3.85;;
76094;SDS011;64821;13.710;100.604;2023-06-05T01:46:29;10.65;;;3.90;;
76094;SDS011;64821;13.710;100.604;2023-06-05T01:47:32;10.83;;;3.73;;
76094;SDS011;64821;13.710;100.604;2023-06-05T01:48:37;11.60;;;3.90;;
76094;SDS011;64821;13.710;100.604;2023-06-05T01:49:41;13.10;;;4.40;;
76094;SDS011;64821;13.710;100.604;2023-06-05T01:50:46;9.52;;;3.70;;
76094;SDS011;64821;13.710;100.604;2023-06-05T01:51:50;11.32;;;3.88;;
76094;SDS011;64821;13.710;100.604;2023-06-05T01:52:53;10.63;;;3.70;;
76094;SDS011;64821;13.710;100.604;2023-06-05T01:53:59;13.13;;;4.57;;
76094;SDS011;64821;13.710;100.604;2023-06-05T01:55:03;9.55;;;4.20;;
76094;SDS011;64821;13.710;100.604;2023-06-05T01:56:07;11.38;;;4.15;;
76094;SDS011;64821;13.710;100.604;2023-06-05T01:57:11;11.65;;;3.67;;
76094;SDS011;64821;13.710;100.604;2023-06-05T01:58:15;9.57;;;4.03;;
76094;SDS011;64821;13.710;100.604;2023-06-05T01:59:19;9.88;;;3.80;;
76094;SDS011;64821;13.710;100.604;2023-06-05T02:00:23;9.50;;;3.75;;
76094;SDS011;64821;13.710;100.604;2023-06-05T02:01:26;9.70;;;3.90;;
76094;SDS011;64821;13.710;100.604;2023-06-05T02:02:31;10.43;;;3.85;;
76094;SDS011;64821;13.710;100.604;2023-06-05T02:03:34;9.20;;;3.77;;
76094;SDS011;64821;13.710;100.604;2023-06-05T02:04:38;9.02;;;3.50;;
76094;SDS011;64821;13.710;100.604;2023-06-05T02:05:42;9.57;;;3.90;;
76094;SDS011;64821;13.710;100.604;2023-06-05T02:06:46;9.18;;;3.53;;
76094;SDS011;64821;13.710;100.604;2023-06-05T02:07:50;9.48;;;4.10;;
76094;SDS011;64821;13.710;100.604;2023-06-05T02:08:53;11.67;;;4.10;;
76094;SDS011;64821;13.710;100.604;2023-06-05T02:09:59;11.50;;;4.05;;
76094;SDS011;64821;13.710;100.604;2023-06-05T02:11:02;12.25;;;4.22;;
76094;SDS011;64821;13.710;100.604;2023-06-05T02:12:06;14.35;;;4.30;;
76094;SDS011;64821;13.710;100.604;2023-06-05T02:13:10;14.25;;;4.55;;
76094;SDS011;64821;13.710;100.604;2023-06-05T02:14:14;14.23;;;4.13;;
76094;SDS011;64821;13.710;100.604;2023-06-05T02:15:18;14.55;;;4.70;;
76094;SDS011;64821;13.710;100.604;2023-06-05T02:16:22;9.77;;;4.10;;
76094;SDS011;64821;13.710;100.604;2023-06-05T02:17:25;10.00;;;4.05;;
76094;SDS011;64821;13.710;100.604;2023-06-05T02:18:29;10.60;;;4.20;;
76094;SDS011;64821;13.710;100.604;2023-06-05T02:19:33;11.23;;;3.93;;
76094;SDS011;64821;13.710;100.604;2023-06-05T02:20:37;11.50;;;4.30;;
76094;SDS011;64821;13.710;100.604;2023-06-05T02:21:40;8.43;;;3.90;;
76094;SDS011;64821;13.710;100.604;2023-06-05T02:22:44;10.88;;;4.20;;
76094;SDS011;64821;13.710;100.604;2023-06-05T02:23:48;10.57;;;4.10;;
76094;SDS011;64821;13.710;100.604;2023-06-05T02:24:51;11.33;;;4.57;;
76094;SDS011;64821;13.710;100.604;2023-06-05T02:25:57;10.77;;;4.35;;
76094;SDS011;64821;13.710;100.604;2023-06-05T02:27:01;14.38;;;4.70;;
76094;SDS011;64821;13.710;100.604;2023-06-05T02:28:04;27.17;;;5.32;;
76094;SDS011;64821;13.710;100.604;2023-06-05T02:29:08;20.27;;;5.35;;
76094;SDS011;64821;13.710;100.604;2023-06-05T02:30:12;14.47;;;4.37;;
76094;SDS011;64821;13.710;100.604;2023-06-05T02:31:16;13.95;;;4.45;;
76094;SDS011;64821;13.710;100.604;2023-06-05T02:32:20;11.90;;;3.92;;
76094;SDS011;64821;13.710;100.604;2023-06-05T02:33:24;18.30;;;4.47;;
76094;SDS011;64821;13.710;100.604;2023-06-05T02:34:27;12.02;;;3.85;;
76094;SDS011;64821;13.710;100.604;2023-06-05T02:35:31;10.10;;;3.77;;
76094;SDS011;64821;13.710;100.604;2023-06-05T02:36:35;9.63;;;4.03;;
76094;SDS011;64821;13.710;100.604;2023-06-05T02:37:39;11.30;;;3.70;;
76094;SDS011;64821;13.710;100.604;2023-06-05T02:38:43;10.45;;;4.13;;
76094;SDS011;64821;13.710;100.604;2023-06-05T02:39:47;9.23;;;4.07;;
76094;SDS011;64821;13.710;100.604;2023-06-05T02:40:51;9.13;;;4.30;;
76094;SDS011;64821;13.710;100.604;2023-06-05T02:41:56;9.25;;;4.40;;
76094;SDS011;64821;13.710;100.604;2023-06-05T02:43:00;11.25;;;4.20;;
76094;SDS011;64821;13.710;100.604;2023-06-05T02:44:04;12.07;;;4.15;;
76094;SDS011;64821;13.710;100.604;2023-06-05T02:45:08;12.65;;;4.20;;
76094;SDS011;64821;13.710;100.604;2023-06-05T02:46:12;9.20;;;3.90;;
76094;SDS011;64821;13.710;100.604;2023-06-05T02:47:22;12.27;;;4.35;;
76094;SDS011;64821;13.710;100.604;2023-06-05T02:48:26;10.80;;;4.43;;
76094;SDS011;64821;13.710;100.604;2023-06-05T02:49:29;11.00;;;3.85;;
76094;SDS011;64821;13.710;100.604;2023-06-05T02:50:33;12.25;;;4.32;;
76094;SDS011;64821;13.710;100.604;2023-06-05T02:51:37;10.97;;;4.20;;
76094;SDS011;64821;13.710;100.604;2023-06-05T02:52:41;9.43;;;3.90;;
76094;SDS011;64821;13.710;100.604;2023-06-05T02:53:44;10.68;;;3.95;;
76094;SDS011;64821;13.710;100.604;2023-06-05T02:54:48;14.50;;;4.63;;
76094;SDS011;64821;13.710;100.604;2023-06-05T02:55:52;16.77;;;4.97;;
76094;SDS011;64821;13.710;100.604;2023-06-05T02:56:57;11.93;;;4.33;;
76094;SDS011;64821;13.710;100.604;2023-06-05T02:58:01;10.48;;;4.63;;
76094;SDS011;64821;13.710;100.604;2023-06-05T02:59:05;9.63;;;4.40;;
76094;SDS011;64821;13.710;100.604;2023-06-05T03:00:09;9.98;;;4.38;;
76094;SDS011;64821;13.710;100.604;2023-06-05T03:01:13;12.40;;;4.38;;
76094;SDS011;64821;13.710;100.604;2023-06-05T03:02:17;7.90;;;3.80;;
76094;SDS011;64821;13.710;100.604;2023-06-05T03:03:23;10.50;;;4.13;;
76094;SDS011;64821;13.710;100.604;2023-06-05T03:04:27;9.88;;;3.97;;
76094;SDS011;64821;13.710;100.604;2023-06-05T03:05:31;10.60;;;4.40;;
76094;SDS011;64821;13.710;100.604;2023-06-05T03:06:34;11.75;;;4.22;;
76094;SDS011;64821;13.710;100.604;2023-06-05T03:07:38;9.77;;;4.07;;
76094;SDS011;64821;13.710;100.604;2023-06-05T03:08:42;11.38;;;4.50;;
76094;SDS011;64821;13.710;100.604;2023-06-05T03:09:46;9.20;;;4.10;;
76094;SDS011;64821;13.710;100.604;2023-06-05T03:10:50;12.32;;;4.57;;
76094;SDS011;64821;13.710;100.604;2023-06-05T03:11:54;11.50;;;4.28;;
76094;SDS011;64821;13.710;100.604;2023-06-05T03:12:59;14.73;;;4.97;;
76094;SDS011;64821;13.710;100.604;2023-06-05T03:14:03;11.05;;;4.60;;
76094;SDS011;64821;13.710;100.604;2023-06-05T03:15:07;9.82;;;4.20;;
76094;SDS011;64821;13.710;100.604;2023-06-05T03:16:11;9.95;;;4.10;;
76094;SDS011;64821;13.710;100.604;2023-06-05T03:17:15;11.48;;;4.15;;
76094;SDS011;64821;13.710;100.604;2023-06-05T03:18:19;10.13;;;4.70;;
76094;SDS011;64821;13.710;100.604;2023-06-05T03:19:22;11.52;;;4.65;;
76094;SDS011;64821;13.710;100.604;2023-06-05T03:20:26;12.85;;;4.30;;
76094;SDS011;64821;13.710;100.604;2023-06-05T03:21:30;10.63;;;4.38;;
76094;SDS011;64821;13.710;100.604;2023-06-05T03:22:33;9.75;;;4.13;;
76094;SDS011;64821;13.710;100.604;2023-06-05T03:23:37;12.07;;;4.30;;
76094;SDS011;64821;13.710;100.604;2023-06-05T03:24:41;14.05;;;4.30;;
76094;SDS011;64821;13.710;100.604;2023-06-05T03:25:45;9.48;;;3.95;;
76094;SDS011;64821;13.710;100.604;2023-06-05T03:26:48;11.23;;;4.50;;
76094;SDS011;64821;13.710;100.604;2023-06-05T03:27:52;9.45;;;4.03;;
76094;SDS011;64821;13.710;100.604;2023-06-05T03:28:57;9.97;;;4.03;;
76094;SDS011;64821;13.710;100.604;2023-06-05T03:30:01;8.20;;;3.95;;
76094;SDS011;64821;13.710;100.604;2023-06-05T03:31:05;8.73;;;4.15;;
76094;SDS011;64821;13.710;100.604;2023-06-05T03:32:09;10.30;;;4.00;;
76094;SDS011;64821;13.710;100.604;2023-06-05T03:33:13;9.05;;;4.00;;
76094;SDS011;64821;13.710;100.604;2023-06-05T03:34:17;10.63;;;4.27;;
76094;SDS011;64821;13.710;100.604;2023-06-05T03:35:20;10.50;;;4.30;;
76094;SDS011;64821;13.710;100.604;2023-06-05T03:36:24;8.68;;;4.03;;
76094;SDS011;64821;13.710;100.604;2023-06-05T03:37:28;8.68;;;4.30;;
76094;SDS011;64821;13.710;100.604;2023-06-05T03:38:31;9.73;;;4.50;;
76094;SDS011;64821;13.710;100.604;2023-06-05T03:39:35;10.10;;;4.37;;
76094;SDS011;64821;13.710;100.604;2023-06-05T03:40:42;10.93;;;4.53;;
76094;SDS011;64821;13.710;100.604;2023-06-05T03:41:46;10.82;;;4.50;;
76094;SDS011;64821;13.710;100.604;2023-06-05T03:42:49;11.18;;;4.32;;
76094;SDS011;64821;13.710;100.604;2023-06-05T03:43:53;9.30;;;4.00;;
76094;SDS011;64821;13.710;100.604;2023-06-05T03:44:59;11.23;;;4.03;;
76094;SDS011;64821;13.710;100.604;2023-06-05T03:46:02;10.35;;;4.43;;
76094;SDS011;64821;13.710;100.604;2023-06-05T03:47:06;11.25;;;4.60;;
76094;SDS011;64821;13.710;100.604;2023-06-05T03:48:10;10.23;;;4.80;;
76094;SDS011;64821;13.710;100.604;2023-06-05T03:49:14;12.10;;;4.22;;
76094;SDS011;64821;13.710;100.604;2023-06-05T03:50:18;20.40;;;4.90;;
76094;SDS011;64821;13.710;100.604;2023-06-05T03:51:21;10.30;;;4.10;;
76094;SDS011;64821;13.710;100.604;2023-06-05T03:52:25;10.82;;;3.95;;
76094;SDS011;64821;13.710;100.604;2023-06-05T03:53:29;11.25;;;4.40;;
76094;SDS011;64821;13.710;100.604;2023-06-05T03:54:33;9.10;;;4.43;;
76094;SDS011;64821;13.710;100.604;2023-06-05T03:55:36;10.43;;;4.20;;
76094;SDS011;64821;13.710;100.604;2023-06-05T03:56:40;9.80;;;4.57;;
76094;SDS011;64821;13.710;100.604;2023-06-05T03:57:44;10.73;;;3.97;;
76094;SDS011;64821;13.710;100.604;2023-06-05T03:58:48;9.45;;;3.80;;
76094;SDS011;64821;13.710;100.604;2023-06-05T03:59:51;8.80;;;3.85;;
76094;SDS011;64821;13.710;100.604;2023-06-05T04:00:57;9.33;;;4.00;;
76094;SDS011;64821;13.710;100.604;2023-06-05T04:02:00;9.80;;;4.20;;
76094;SDS011;64821;13.710;100.604;2023-06-05T04:03:04;10.85;;;4.75;;
76094;SDS011;64821;13.710;100.604;2023-06-05T04:04:08;11.55;;;4.07;;
76094;SDS011;64821;13.710;100.604;2023-06-05T04:05:12;11.13;;;4.13;;
76094;SDS011;64821;13.710;100.604;2023-06-05T04:06:15;9.53;;;4.00;;
76094;SDS011;64821;13.710;100.604;2023-06-05T04:07:19;9.68;;;4.38;;
76094;SDS011;64821;13.710;100.604;2023-06-05T04:08:23;8.55;;;4.07;;
76094;SDS011;64821;13.710;100.604;2023-06-05T04:09:27;10.10;;;4.50;;
76094;SDS011;64821;13.710;100.604;2023-06-05T04:10:30;9.38;;;4.40;;
76094;SDS011;64821;13.710;100.604;2023-06-05T04:11:34;10.43;;;4.47;;
76094;SDS011;64821;13.710;100.604;2023-06-05T04:12:38;8.80;;;4.32;;
76094;SDS011;64821;13.710;100.604;2023-06-05T04:13:41;10.95;;;4.20;;
76094;SDS011;64821;13.710;100.604;2023-06-05T04:14:45;12.93;;;4.60;;
76094;SDS011;64821;13.710;100.604;2023-06-05T04:15:49;10.48;;;4.50;;
76094;SDS011;64821;13.710;100.604;2023-06-05T04:16:54;9.30;;;3.73;;
76094;SDS011;64821;13.710;100.604;2023-06-05T04:17:58;9.23;;;4.25;;
76094;SDS011;64821;13.710;100.604;2023-06-05T04:19:02;8.27;;;4.07;;
76094;SDS011;64821;13.710;100.604;2023-06-05T04:20:06;9.02;;;3.90;;
76094;SDS011;64821;13.710;100.604;2023-06-05T04:21:11;9.95;;;3.92;;
76094;SDS011;64821;13.710;100.604;2023-06-05T04:22:15;9.33;;;4.00;;
76094;SDS011;64821;13.710;100.604;2023-06-05T04:23:18;10.57;;;4.30;;
76094;SDS011;64821;13.710;100.604;2023-06-05T04:24:22;11.13;;;4.22;;
76094;SDS011;64821;13.710;100.604;2023-06-05T04:25:26;11.10;;;4.00;;
76094;SDS011;64821;13.710;100.604;2023-06-05T04:26:30;11.63;;;4.25;;
76094;SDS011;64821;13.710;100.604;2023-06-05T04:27:33;10.63;;;4.23;;
76094;SDS011;64821;13.710;100.604;2023-06-05T04:28:37;9.40;;;4.20;;
76094;SDS011;64821;13.710;100.604;2023-06-05T04:29:41;12.05;;;4.05;;
76094;SDS011;64821;13.710;100.604;2023-06-05T04:30:44;8.60;;;4.00;;
76094;SDS011;64821;13.710;100.604;2023-06-05T04:31:48;9.63;;;4.07;;
76094;SDS011;64821;13.710;100.604;2023-06-05T04:32:56;11.80;;;4.30;;
76094;SDS011;64821;13.710;100.604;2023-06-05T04:34:00;12.10;;;4.97;;
76094;SDS011;64821;13.710;100.604;2023-06-05T04:35:04;10.15;;;5.32;;
76094;SDS011;64821;13.710;100.604;2023-06-05T04:36:08;10.77;;;4.28;;
76094;SDS011;64821;13.710;100.604;2023-06-05T04:37:12;9.10;;;4.10;;
76094;SDS011;64821;13.710;100.604;2023-06-05T04:38:15;8.70;;;4.00;;
76094;SDS011;64821;13.710;100.604;2023-06-05T04:39:19;10.27;;;4.05;;
76094;SDS011;64821;13.710;100.604;2023-06-05T04:40:23;9.60;;;4.13;;
76094;SDS011;64821;13.710;100.604;2023-06-05T04:41:27;10.80;;;3.83;;
76094;SDS011;64821;13.710;100.604;2023-06-05T04:42:31;11.70;;;4.47;;
76094;SDS011;64821;13.710;100.604;2023-06-05T04:43:34;11.57;;;4.23;;
76094;SDS011;64821;13.710;100.604;2023-06-05T04:44:38;14.52;;;4.50;;
76094;SDS011;64821;13.710;100.604;2023-06-05T04:45:42;11.25;;;4.25;;
76094;SDS011;64821;13.710;100.604;2023-06-05T04:46:45;10.73;;;3.97;;
76094;SDS011;64821;13.710;100.604;2023-06-05T04:47:49;14.63;;;4.32;;
76094;SDS011;64821;13.710;100.604;2023-06-05T04:48:55;9.97;;;4.23;;
76094;SDS011;64821;13.710;100.604;2023-06-05T04:49:59;11.60;;;4.15;;
76094;SDS011;64821;13.710;100.604;2023-06-05T04:51:03;10.38;;;4.28;;
76094;SDS011;64821;13.710;100.604;2023-06-05T04:52:07;12.50;;;4.50;;
76094;SDS011;64821;13.710;100.604;2023-06-05T04:53:11;10.27;;;4.60;;
76094;SDS011;64821;13.710;100.604;2023-06-05T04:54:15;10.90;;;4.20;;
76094;SDS011;64821;13.710;100.604;2023-06-05T04:55:18;8.63;;;3.97;;
76094;SDS011;64821;13.710;100.604;2023-06-05T04:56:22;11.02;;;4.50;;
76094;SDS011;64821;13.710;100.604;2023-06-05T04:57:26;9.80;;;4.07;;
76094;SDS011;64821;13.710;100.604;2023-06-05T04:58:30;10.18;;;4.53;;
76094;SDS011;64821;13.710;100.604;2023-06-05T04:59:34;10.20;;;4.07;;
76094;SDS011;64821;13.710;100.604;2023-06-05T05:00:37;9.95;;;3.90;;
76094;SDS011;64821;13.710;100.604;2023-06-05T05:01:41;10.45;;;4.22;;
76094;SDS011;64821;13.710;100.604;2023-06-05T05:02:45;10.68;;;4.30;;
76094;SDS011;64821;13.710;100.604;2023-06-05T05:03:49;10.75;;;4.20;;
76094;SDS011;64821;13.710;100.604;2023-06-05T05:04:54;11.50;;;4.20;;
76094;SDS011;64821;13.710;100.604;2023-06-05T05:05:58;12.93;;;4.10;;
76094;SDS011;64821;13.710;100.604;2023-06-05T05:07:02;12.90;;;4.38;;
76094;SDS011;64821;13.710;100.604;2023-06-05T05:08:06;10.30;;;3.90;;
76094;SDS011;64821;13.710;100.604;2023-06-05T05:09:12;11.32;;;3.72;;
76094;SDS011;64821;13.710;100.604;2023-06-05T05:10:16;8.80;;;3.70;;
76094;SDS011;64821;13.710;100.604;2023-06-05T05:11:20;11.30;;;4.07;;
76094;SDS011;64821;13.710;100.604;2023-06-05T05:12:24;13.30;;;3.63;;
76094;SDS011;64821;13.710;100.604;2023-06-05T05:13:27;12.52;;;4.07;;
76094;SDS011;64821;13.710;100.604;2023-06-05T05:14:31;10.15;;;3.67;;
76094;SDS011;64821;13.710;100.604;2023-06-05T05:15:35;9.47;;;4.07;;
76094;SDS011;64821;13.710;100.604;2023-06-05T05:16:39;9.25;;;3.63;;
76094;SDS011;64821;13.710;100.604;2023-06-05T05:17:43;8.52;;;3.60;;
76094;SDS011;64821;13.710;100.604;2023-06-05T05:18:46;10.18;;;3.65;;
76094;SDS011;64821;13.710;100.604;2023-06-05T05:19:50;9.27;;;3.78;;
76094;SDS011;64821;13.710;100.604;2023-06-05T05:20:56;9.70;;;4.30;;
76094;SDS011;64821;13.710;100.604;2023-06-05T05:21:59;7.82;;;3.75;;
76094;SDS011;64821;13.710;100.604;2023-06-05T05:23:03;11.57;;;4.28;;
76094;SDS011;64821;13.710;100.604;2023-06-05T05:24:07;9.88;;;4.03;;
76094;SDS011;64821;13.710;100.604;2023-06-05T05:25:11;10.13;;;3.90;;
76094;SDS011;64821;13.710;100.604;2023-06-05T05:26:14;9.00;;;3.80;;
76094;SDS011;64821;13.710;100.604;2023-06-05T05:27:18;9.43;;;3.60;;
76094;SDS011;64821;13.710;100.604;2023-06-05T05:28:22;9.63;;;4.00;;
76094;SDS011;64821;13.710;100.604;2023-06-05T05:29:25;8.80;;;3.53;;
76094;SDS011;64821;13.710;100.604;2023-06-05T05:30:29;10.30;;;3.72;;
76094;SDS011;64821;13.710;100.604;2023-06-05T05:31:33;9.37;;;3.67;;
76094;SDS011;64821;13.710;100.604;2023-06-05T05:32:37;8.25;;;3.42;;
76094;SDS011;64821;13.710;100.604;2023-06-05T05:33:41;7.78;;;3.70;;
76094;SDS011;64821;13.710;100.604;2023-06-05T05:34:44;8.10;;;3.60;;
76094;SDS011;64821;13.710;100.604;2023-06-05T05:35:48;9.77;;;3.58;;
76094;SDS011;64821;13.710;100.604;2023-06-05T05:36:53;9.67;;;3.50;;
76094;SDS011;64821;13.710;100.604;2023-06-05T05:37:57;7.95;;;3.83;;
76094;SDS011;64821;13.710;100.604;2023-06-05T05:39:01;9.15;;;3.80;;
76094;SDS011;64821;13.710;100.604;2023-06-05T05:40:05;8.98;;;3.60;;
76094;SDS011;64821;13.710;100.604;2023-06-05T05:41:09;8.98;;;4.20;;
76094;SDS011;64821;13.710;100.604;2023-06-05T05:42:13;8.50;;;3.80;;
76094;SDS011;64821;13.710;100.604;2023-06-05T05:43:17;8.57;;;3.90;;
76094;SDS011;64821;13.710;100.604;2023-06-05T05:44:21;10.38;;;3.88;;
76094;SDS011;64821;13.710;100.604;2023-06-05T05:45:25;9.68;;;4.22;;
76094;SDS011;64821;13.710;100.604;2023-06-05T05:46:28;9.82;;;4.05;;
76094;SDS011;64821;13.710;100.604;2023-06-05T05:47:32;10.60;;;4.17;;
76094;SDS011;64821;13.710;100.604;2023-06-05T05:48:36;9.45;;;3.83;;
76094;SDS011;64821;13.710;100.604;2023-06-05T05:49:40;10.48;;;3.72;;
76094;SDS011;64821;13.710;100.604;2023-06-05T05:50:43;8.27;;;3.70;;
76094;SDS011;64821;13.710;100.604;2023-06-05T05:51:47;9.35;;;4.00;;
76094;SDS011;64821;13.710;100.604;2023-06-05T05:52:53;9.63;;;4.30;;
76094;SDS011;64821;13.710;100.604;2023-06-05T05:53:57;9.90;;;4.10;;
76094;SDS011;64821;13.710;100.604;2023-06-05T05:55:01;9.13;;;4.13;;
76094;SDS011;64821;13.710;100.604;2023-06-05T05:56:04;11.75;;;3.88;;
76094;SDS011;64821;13.710;100.604;2023-06-05T05:57:08;12.40;;;3.80;;
76094;SDS011;64821;13.710;100.604;2023-06-05T05:58:12;16.37;;;3.47;;
76094;SDS011;64821;13.710;100.604;2023-06-05T05:59:16;10.13;;;3.10;;
76094;SDS011;64821;13.710;100.604;2023-06-05T06:00:20;10.18;;;2.72;;
76094;SDS011;64821;13.710;100.604;2023-06-05T06:01:23;11.60;;;2.53;;
76094;SDS011;64821;13.710;100.604;2023-06-05T06:02:27;14.38;;;2.63;;
76094;SDS011;64821;13.710;100.604;2023-06-05T06:03:31;12.17;;;2.10;;
76094;SDS011;64821;13.710;100.604;2023-06-05T06:04:35;11.15;;;2.40;;
76094;SDS011;64821;13.710;100.604;2023-06-05T06:05:39;8.95;;;2.72;;
76094;SDS011;64821;13.710;100.604;2023-06-05T06:06:42;6.90;;;2.20;;
76094;SDS011;64821;13.710;100.604;2023-06-05T06:07:46;6.85;;;2.00;;
76094;SDS011;64821;13.710;100.604;2023-06-05T06:08:52;7.30;;;2.20;;
76094;SDS011;64821;13.710;100.604;2023-06-05T06:09:55;7.47;;;2.10;;
76094;SDS011;64821;13.710;100.604;2023-06-05T06:10:59;8.55;;;2.20;;
76094;SDS011;64821;13.710;100.604;2023-06-05T06:12:04;6.70;;;1.73;;
76094;SDS011;64821;13.710;100.604;2023-06-05T06:13:08;8.00;;;1.98;;